Time;durP1;ratioP1;P1;durP2;ratioP2;P2;SDS_P1;SDS_P2;PMS_P1;PMS_P2;Temp;Humidity;BMP_temperature;BMP_pressure;BME280_temperature;BME280_humidity;BME280_pressure;Samples;Min_cycle;Max_cycle;Signal;HPM_P1;HPM_P2
2021/07/26 00:00:08;;;;;;;9.27;5.10;;;18.70;37.00;;;;;;5079390;28;20059;-72
2021/07/26 00:03:02;;;;;;;5.32;4.80;;;18.70;37.90;;;;;;5081115;28;20388;-72
2021/07/26 00:05:55;;;;;;;8.75;4.82;;;18.70;37.00;;;;;;5067895;28;20127;-72
2021/07/26 00:08:55;;;;;;;9.70;5.25;;;18.70;37.60;;;;;;5068573;28;20499;-73
2021/07/26 00:11:43;;;;;;;6.05;4.47;;;18.70;37.70;;;;;;5078146;28;20055;-72
2021/07/26 00:14:32;;;;;;;7.70;5.18;;;18.70;38.00;;;;;;5082546;28;20051;-72
2021/07/26 00:17:21;;;;;;;6.07;5.05;;;18.70;37.80;;;;;;5077763;28;20132;-73
2021/07/26 00:20:12;;;;;;;7.22;5.65;;;18.60;38.40;;;;;;5069301;28;20055;-73
2021/07/26 00:23:00;;;;;;;6.70;5.38;;;18.70;39.10;;;;;;5075922;28;20494;-71
2021/07/26 00:25:49;;;;;;;8.23;6.10;;;18.50;40.40;;;;;;5080199;28;20135;-73
2021/07/26 00:28:37;;;;;;;11.77;5.57;;;18.60;40.40;;;;;;5082951;28;20044;-73
2021/07/26 00:31:27;;;;;;;8.63;5.30;;;18.50;40.40;;;;;;5060938;28;20056;-73
2021/07/26 00:34:30;;;;;;;6.35;5.13;;;18.60;40.70;;;;;;5055998;28;20062;-73
2021/07/26 00:37:33;;;;;;;8.38;5.88;;;18.50;41.10;;;;;;5080224;28;20048;-72
2021/07/26 00:40:24;;;;;;;8.13;6.00;;;18.60;41.10;;;;;;5081155;28;20048;-72
2021/07/26 00:43:12;;;;;;;8.40;6.03;;;18.60;40.50;;;;;;5062729;28;20431;-72
2021/07/26 00:46:01;;;;;;;12.98;5.78;;;18.60;40.80;;;;;;5081258;28;20048;-72
2021/07/26 00:48:50;;;;;;;7.78;5.68;;;18.60;41.90;;;;;;5083037;28;20396;-73
2021/07/26 00:51:40;;;;;;;8.10;5.60;;;18.60;41.10;;;;;;5077714;28;20056;-72
2021/07/26 00:54:32;;;;;;;7.32;5.75;;;18.60;40.00;;;;;;5083504;28;20090;-71
2021/07/26 00:57:22;;;;;;;8.55;5.57;;;18.60;40.40;;;;;;5084868;28;20453;-72
2021/07/26 01:00:11;;;;;;;8.68;5.43;;;18.70;40.00;;;;;;5062524;28;20163;-72
2021/07/26 01:02:59;;;;;;;7.93;6.20;;;18.70;40.10;;;;;;5082691;28;20275;-72
2021/07/26 01:05:47;;;;;;;10.00;5.72;;;18.50;40.80;;;;;;5080409;28;20504;-72
2021/07/26 01:08:36;;;;;;;9.23;6.25;;;18.50;40.50;;;;;;5084279;28;20044;-73
2021/07/26 01:11:26;;;;;;;8.57;6.18;;;18.50;41.40;;;;;;5080712;28;20048;-73
2021/07/26 01:14:16;;;;;;;8.70;6.28;;;18.50;41.50;;;;;;5067521;28;20044;-71
2021/07/26 01:17:08;;;;;;;7.25;5.78;;;18.40;41.60;;;;;;5080791;28;20189;-72
2021/07/26 01:19:56;;;;;;;7.60;5.90;;;18.50;41.70;;;;;;5077416;28;20074;-72
2021/07/26 01:22:46;;;;;;;7.97;5.88;;;18.40;41.00;;;;;;5081161;28;20091;-72
2021/07/26 01:25:36;;;;;;;14.23;6.65;;;18.30;41.80;;;;;;5082858;28;20060;-72
2021/07/26 01:28:26;;;;;;;9.07;5.88;;;18.30;42.90;;;;;;5083919;28;20059;-73
2021/07/26 01:31:15;;;;;;;8.98;6.10;;;18.30;42.40;;;;;;5081992;28;20047;-73
2021/07/26 01:34:04;;;;;;;7.72;5.65;;;18.30;42.20;;;;;;5088018;28;20059;-73
2021/07/26 01:36:52;;;;;;;8.50;6.70;;;18.40;43.60;;;;;;5086307;28;20043;-73
2021/07/26 01:39:42;;;;;;;7.72;5.85;;;18.30;41.80;;;;;;5084876;28;20050;-73
2021/07/26 01:42:31;;;;;;;10.02;6.05;;;18.20;43.20;;;;;;5084836;28;20052;-72
2021/07/26 01:45:19;;;;;;;8.45;6.68;;;18.20;43.30;;;;;;5087065;28;20051;-72
2021/07/26 01:48:17;;;;;;;8.35;6.15;;;18.10;42.80;;;;;;5084441;28;20155;-73
2021/07/26 01:51:11;;;;;;;10.18;6.15;;;18.10;42.90;;;;;;5080200;28;20044;-72
2021/07/26 01:54:00;;;;;;;6.60;5.68;;;18.10;43.90;;;;;;5086091;28;20040;-72
2021/07/26 01:56:50;;;;;;;9.05;5.57;;;18.10;44.20;;;;;;5084743;28;20348;-71
2021/07/26 01:59:39;;;;;;;7.72;5.82;;;18.00;44.10;;;;;;5066406;28;20426;-73
2021/07/26 02:02:31;;;;;;;11.70;5.55;;;18.00;44.10;;;;;;5083231;28;20051;-73
2021/07/26 02:05:20;;;;;;;7.75;5.60;;;18.10;44.30;;;;;;5087265;28;20032;-73
2021/07/26 02:08:08;;;;;;;7.95;6.03;;;18.10;44.20;;;;;;5084999;28;20040;-73
2021/07/26 02:10:58;;;;;;;10.10;5.90;;;18.20;41.90;;;;;;5082827;28;20036;-73
2021/07/26 02:13:48;;;;;;;8.00;5.95;;;18.30;41.20;;;;;;5083416;28;20115;-73
2021/07/26 02:16:36;;;;;;;9.15;5.93;;;18.20;40.40;;;;;;5084703;28;20435;-73
2021/07/26 02:19:25;;;;;;;8.75;5.63;;;18.10;42.60;;;;;;5085228;28;20206;-73
2021/07/26 02:22:13;;;;;;;9.43;5.97;;;18.00;44.10;;;;;;5066271;28;20050;-73
2021/07/26 02:25:02;;;;;;;7.53;5.57;;;18.10;44.20;;;;;;5082482;28;20062;-72
2021/07/26 02:27:50;;;;;;;9.23;5.63;;;18.10;43.60;;;;;;5085230;28;20117;-72
2021/07/26 02:30:40;;;;;;;9.52;6.13;;;18.10;43.60;;;;;;5081980;28;20457;-72
2021/07/26 02:33:29;;;;;;;8.20;5.43;;;18.10;44.10;;;;;;5082601;28;20181;-72
2021/07/26 02:36:17;;;;;;;10.82;5.43;;;17.90;44.10;;;;;;5067541;28;20770;-73
2021/07/26 02:39:06;;;;;;;10.57;5.88;;;17.90;46.00;;;;;;5086388;28;20044;-72
2021/07/26 02:41:54;;;;;;;11.60;5.85;;;18.00;45.00;;;;;;5079338;28;20515;-73
2021/07/26 02:44:43;;;;;;;5.78;5.18;;;17.90;44.70;;;;;;5085344;28;20056;-72
2021/07/26 02:47:32;;;;;;;8.52;5.43;;;18.00;45.50;;;;;;5086484;28;20566;-73
2021/07/26 02:50:26;;;;;;;8.30;5.68;;;18.10;44.30;;;;;;5078797;28;20048;-71
2021/07/26 02:53:14;;;;;;;7.85;5.43;;;18.00;44.10;;;;;;5085386;28;20076;-71
2021/07/26 02:56:08;;;;;;;9.10;5.43;;;17.80;47.00;;;;;;5084845;28;20043;-72
2021/07/26 02:58:56;;;;;;;9.25;5.65;;;17.80;46.70;;;;;;5085952;28;20051;-72
2021/07/26 03:01:44;;;;;;;8.18;5.32;;;17.70;47.40;;;;;;5080247;28;20072;-73
2021/07/26 03:04:34;;;;;;;9.85;5.60;;;17.90;48.30;;;;;;5085595;28;20181;-72
2021/07/26 03:07:23;;;;;;;9.40;5.07;;;17.90;46.20;;;;;;5085786;28;20036;-72
2021/07/26 03:10:12;;;;;;;7.93;6.07;;;17.90;47.90;;;;;;5064160;28;20112;-71
2021/07/26 03:13:01;;;;;;;8.88;5.43;;;17.80;47.90;;;;;;5081347;28;20124;-72
2021/07/26 03:15:49;;;;;;;6.45;5.45;;;17.80;48.20;;;;;;5084384;28;20120;-72
2021/07/26 03:18:38;;;;;;;8.75;5.60;;;17.80;47.30;;;;;;5084778;28;20163;-72
2021/07/26 03:21:28;;;;;;;8.93;5.85;;;17.90;46.80;;;;;;5079472;28;20048;-72
2021/07/26 03:24:18;;;;;;;8.30;5.95;;;17.90;47.40;;;;;;5070530;28;20043;-72
2021/07/26 03:27:07;;;;;;;10.10;5.78;;;18.00;46.80;;;;;;5080379;28;20182;-72
2021/07/26 03:29:55;;;;;;;9.57;5.43;;;18.20;44.30;;;;;;5078851;28;20521;-73
2021/07/26 03:32:44;;;;;;;8.07;5.88;;;18.20;43.60;;;;;;5081700;28;20522;-72
2021/07/26 03:35:32;;;;;;;7.72;5.32;;;18.00;44.10;;;;;;5082930;28;20522;-72
2021/07/26 03:38:22;;;;;;;9.52;6.18;;;18.00;45.80;;;;;;5059712;28;20040;-72
2021/07/26 03:41:11;;;;;;;6.70;5.40;;;18.00;45.00;;;;;;5078286;28;20056;-73
2021/07/26 03:43:59;;;;;;;7.88;5.95;;;17.90;45.20;;;;;;5083918;28;20070;-73
2021/07/26 03:46:47;;;;;;;9.45;6.03;;;18.00;46.30;;;;;;5080165;28;20101;-72
2021/07/26 03:49:36;;;;;;;11.68;6.03;;;18.00;45.90;;;;;;5081887;28;20048;-72
2021/07/26 03:52:24;;;;;;;9.52;6.10;;;18.10;46.20;;;;;;5080593;28;20068;-72
2021/07/26 03:55:18;;;;;;;7.03;5.78;;;18.00;44.30;;;;;;5084096;28;20040;-72
2021/07/26 03:58:07;;;;;;;9.57;6.03;;;18.00;45.50;;;;;;5083213;28;20053;-73
2021/07/26 04:00:55;;;;;;;8.43;5.50;;;18.10;45.80;;;;;;5078043;28;20139;-72
2021/07/26 04:03:44;;;;;;;6.95;5.63;;;18.10;43.90;;;;;;5080208;28;20138;-72
2021/07/26 04:06:32;;;;;;;7.05;5.57;;;18.10;42.80;;;;;;5083965;28;20051;-72
2021/07/26 04:09:22;;;;;;;9.60;6.30;;;18.10;43.00;;;;;;5080876;28;20052;-73
2021/07/26 04:12:16;;;;;;;8.95;6.00;;;18.20;41.90;;;;;;5080993;28;20060;-72
2021/07/26 04:15:10;;;;;;;9.50;5.78;;;18.10;43.20;;;;;;5083020;28;20060;-72
2021/07/26 04:17:58;;;;;;;10.00;6.00;;;18.10;43.00;;;;;;5082971;28;20044;-72
2021/07/26 04:20:47;;;;;;;9.02;5.57;;;18.00;44.10;;;;;;5080574;28;20040;-72
2021/07/26 04:23:35;;;;;;;8.32;5.78;;;18.00;42.00;;;;;;5080529;28;20059;-73
2021/07/26 04:26:24;;;;;;;9.68;5.88;;;18.10;41.50;;;;;;5067621;28;20059;-72
2021/07/26 04:29:32;;;;;;;9.18;6.38;;;18.30;40.10;;;;;;5082973;28;20066;-71
2021/07/26 04:32:21;;;;;;;8.50;5.13;;;18.40;36.20;;;;;;5079039;28;20048;-72
2021/07/26 04:35:10;;;;;;;11.40;5.82;;;18.90;31.10;;;;;;5065202;28;20511;-72
2021/07/26 04:37:59;;;;;;;8.90;4.95;;;18.70;30.10;;;;;;5069967;28;20388;-72
2021/07/26 04:40:47;;;;;;;8.18;5.32;;;18.50;33.40;;;;;;5078690;28;20040;-72
2021/07/26 04:43:36;;;;;;;7.82;5.30;;;18.40;35.30;;;;;;5079359;28;20135;-72
2021/07/26 04:46:26;;;;;;;9.73;5.50;;;18.20;35.80;;;;;;5080208;28;20059;-72
2021/07/26 04:49:15;;;;;;;9.43;5.00;;;18.20;35.70;;;;;;5066330;28;20126;-72
2021/07/26 04:52:04;;;;;;;8.25;5.53;;;18.30;35.80;;;;;;5076592;28;20052;-73
2021/07/26 04:54:52;;;;;;;8.65;5.07;;;18.40;35.90;;;;;;5068672;28;20503;-72
2021/07/26 04:57:59;;;;;;;7.70;4.90;;;18.30;35.80;;;;;;5081338;28;20563;-72
2021/07/26 05:00:48;;;;;;;8.23;5.38;;;18.30;34.00;;;;;;5077668;28;20055;-72
2021/07/26 05:03:38;;;;;;;7.18;4.70;;;18.40;33.80;;;;;;5081366;28;20048;-72
2021/07/26 05:06:28;;;;;;;8.10;5.00;;;18.30;34.00;;;;;;5085351;28;20057;-71
2021/07/26 05:09:16;;;;;;;5.97;4.72;;;18.40;32.00;;;;;;5081342;28;20505;-72
2021/07/26 05:12:07;;;;;;;8.40;5.03;;;18.70;30.20;;;;;;5084721;28;20047;-72
2021/07/26 05:14:55;;;;;;;7.53;4.78;;;18.60;30.40;;;;;;5071325;28;20124;-72
2021/07/26 05:17:44;;;;;;;8.20;4.85;;;18.50;31.60;;;;;;5084412;28;20116;-73
2021/07/26 05:20:34;;;;;;;8.82;5.55;;;18.50;31.30;;;;;;5071594;28;20511;-72
2021/07/26 05:23:22;;;;;;;8.80;5.13;;;18.40;31.70;;;;;;5080021;28;20060;-72
2021/07/26 05:26:11;;;;;;;9.93;4.88;;;18.50;31.70;;;;;;5085229;28;20056;-72
2021/07/26 05:28:59;;;;;;;10.80;5.55;;;18.60;30.00;;;;;;5083469;28;20028;-72
2021/07/26 05:31:47;;;;;;;18.33;5.55;;;18.50;31.00;;;;;;5066420;28;20520;-72
2021/07/26 05:34:36;;;;;;;11.05;6.13;;;18.70;31.10;;;;;;5086947;28;20047;-73
2021/07/26 05:37:26;;;;;;;8.98;5.43;;;19.00;25.30;;;;;;5086137;28;20049;-72
2021/07/26 05:40:14;;;;;;;8.55;4.85;;;19.10;26.30;;;;;;5081438;28;20411;-73
2021/07/26 05:43:04;;;;;;;10.10;5.78;;;20.00;19.10;;;;;;5067499;28;20052;-72
2021/07/26 05:45:52;;;;;;;12.20;5.18;;;19.90;17.60;;;;;;5087104;28;20044;-72
2021/07/26 05:48:40;;;;;;;7.65;5.10;;;19.50;21.50;;;;;;5082728;28;20512;-72
2021/07/26 05:51:29;;;;;;;10.30;5.38;;;20.40;15.00;;;;;;5076894;28;20174;-73
2021/07/26 05:54:19;;;;;;;8.48;4.38;;;20.40;13.90;;;;;;5081166;28;20040;-73
2021/07/26 05:57:11;;;;;;;6.35;4.25;;;20.70;13.70;;;;;;5063955;28;20052;-74
2021/07/26 05:59:59;;;;;;;9.50;4.93;;;22.70;1.60;;;;;;5079264;28;20132;-73
2021/07/26 06:02:47;;;;;;;11.32;5.20;;;22.40;1.00;;;;;;5081211;28;20048;-72
2021/07/26 06:05:36;;;;;;;9.43;4.63;;;21.30;6.90;;;;;;5077021;28;20048;-73
2021/07/26 06:08:25;;;;;;;7.95;4.78;;;20.70;8.50;;;;;;5084680;28;20045;-73
2021/07/26 06:11:15;;;;;;;8.05;4.78;;;20.70;11.40;;;;;;5083444;28;20048;-74
2021/07/26 06:14:03;;;;;;;10.25;4.53;;;21.00;11.20;;;;;;5079710;28;20040;-72
2021/07/26 06:16:53;;;;;;;8.05;5.30;;;21.20;8.60;;;;;;5084490;28;20074;-73
2021/07/26 06:19:42;;;;;;;6.25;4.55;;;21.40;8.10;;;;;;5082108;28;20066;-73
2021/07/26 06:22:30;;;;;;;5.82;4.32;;;22.70;2.10;;;;;;5078846;28;20463;-73
2021/07/26 06:25:19;;;;;;;9.68;4.28;;;23.00;1.00;;;;;;5086849;28;20063;-72
2021/07/26 06:28:08;;;;;;;6.18;4.55;;;22.00;1.20;;;;;;5082363;28;20047;-72
2021/07/26 06:30:57;;;;;;;6.10;4.25;;;22.00;2.20;;;;;;5076181;28;20048;-73
2021/07/26 06:33:45;;;;;;;6.78;4.10;;;23.20;1.00;;;;;;5084125;28;20051;-73
2021/07/26 06:36:36;;;;;;;7.60;3.78;;;23.40;1.00;;;;;;5085104;28;20052;-71
2021/07/26 06:39:25;;;;;;;9.45;3.65;;;23.60;1.00;;;;;;5066977;28;20071;-71
2021/07/26 06:42:13;;;;;;;7.38;4.50;;;23.70;1.00;;;;;;5068038;28;20093;-73
2021/07/26 06:45:07;;;;;;;10.05;5.30;;;23.20;1.00;;;;;;5082317;28;20048;-71
2021/07/26 06:47:55;;;;;;;6.30;4.05;;;22.90;1.00;;;;;;5083170;28;21881;-72
2021/07/26 06:50:43;;;;;;;6.20;3.95;;;22.90;1.40;;;;;;5081337;28;20043;-72
2021/07/26 06:53:33;;;;;;;6.50;4.07;;;22.60;3.20;;;;;;5067958;28;20059;-72
2021/07/26 06:56:22;;;;;;;5.20;3.88;;;22.30;4.90;;;;;;5081074;28;20048;-73
2021/07/26 06:59:10;;;;;;;5.32;4.13;;;22.80;2.90;;;;;;5077268;28;20032;-72
2021/07/26 07:02:00;;;;;;;7.60;4.00;;;22.70;2.10;;;;;;5084300;28;20083;-72
2021/07/26 07:04:48;;;;;;;6.63;3.90;;;22.80;3.90;;;;;;5083070;28;20047;-71
2021/07/26 07:07:37;;;;;;;4.82;3.65;;;22.70;2.90;;;;;;5067817;28;20069;-72
2021/07/26 07:10:25;;;;;;;5.15;3.38;;;23.10;1.50;;;;;;5080998;28;20040;-72
2021/07/26 07:13:14;;;;;;;5.28;3.58;;;23.00;1.00;;;;;;5078693;28;20450;-73
2021/07/26 07:16:02;;;;;;;4.65;3.55;;;23.10;1.00;;;;;;5084360;28;20044;-71
2021/07/26 07:18:54;;;;;;;5.60;3.75;;;22.70;1.00;;;;;;5082751;28;20048;-71
2021/07/26 07:21:42;;;;;;;6.88;3.40;;;22.80;1.00;;;;;;5080866;28;20059;-72
2021/07/26 07:24:30;;;;;;;4.93;3.30;;;23.00;1.00;;;;;;5083537;28;20055;-74
2021/07/26 07:27:19;;;;;;;5.30;2.97;;;23.40;1.00;;;;;;5084812;28;20081;-73
2021/07/26 07:30:27;;;;;;;5.30;3.25;;;23.80;1.00;;;;;;5079639;28;20051;-73
2021/07/26 07:33:15;;;;;;;4.90;3.33;;;24.10;1.00;;;;;;5078087;28;20411;-73
2021/07/26 07:36:06;;;;;;;4.35;2.75;;;23.80;1.00;;;;;;5082623;28;20113;-72
2021/07/26 07:38:56;;;;;;;3.15;2.60;;;23.40;1.00;;;;;;5082679;28;21141;-72
2021/07/26 07:41:45;;;;;;;8.05;3.47;;;23.50;1.00;;;;;;5083323;28;20052;-72
2021/07/26 07:44:33;;;;;;;4.20;2.75;;;23.60;1.00;;;;;;5081367;28;20397;-72
2021/07/26 07:47:22;;;;;;;7.72;2.50;;;24.50;1.00;;;;;;5082516;28;20051;-72
2021/07/26 07:50:14;;;;;;;4.65;2.90;;;24.60;1.00;;;;;;5066082;28;20491;-72
2021/07/26 07:53:04;;;;;;;5.53;2.65;;;24.80;1.00;;;;;;5082978;28;20056;-72
2021/07/26 07:55:55;;;;;;;5.32;2.83;;;24.40;1.00;;;;;;5080224;28;20048;-72
2021/07/26 07:58:43;;;;;;;3.97;2.65;;;24.30;1.00;;;;;;5081802;28;20736;-72
2021/07/26 08:01:33;;;;;;;5.28;3.25;;;23.90;1.00;;;;;;5079880;28;20526;-73
2021/07/26 08:04:21;;;;;;;5.35;3.03;;;23.90;1.00;;;;;;5067573;28;20508;-72
2021/07/26 08:07:10;;;;;;;4.72;3.00;;;24.10;1.00;;;;;;5080625;28;20056;-72
2021/07/26 08:10:00;;;;;;;5.72;2.90;;;24.40;1.00;;;;;;5079131;28;20044;-72
2021/07/26 08:12:48;;;;;;;6.13;3.13;;;24.40;1.00;;;;;;5077338;28;20241;-73
2021/07/26 08:15:36;;;;;;;4.90;2.72;;;24.70;1.00;;;;;;5080559;28;20043;-72
2021/07/26 08:18:25;;;;;;;4.68;3.28;;;25.00;1.00;;;;;;5081566;28;20534;-72
2021/07/26 08:21:13;;;;;;;6.78;3.15;;;24.80;1.00;;;;;;5079089;28;20044;-73
2021/07/26 08:24:02;;;;;;;5.40;2.67;;;24.40;1.00;;;;;;5080924;28;20058;-72
2021/07/26 08:26:52;;;;;;;5.65;3.10;;;24.60;1.00;;;;;;5082223;28;20127;-72
2021/07/26 08:29:40;;;;;;;3.60;2.90;;;24.70;1.00;;;;;;5079908;28;20622;-72
2021/07/26 08:32:28;;;;;;;5.07;3.03;;;24.60;1.00;;;;;;5065996;28;20264;-72
2021/07/26 08:35:18;;;;;;;9.48;5.07;;;24.70;1.00;;;;;;5067192;28;20145;-73
2021/07/26 08:38:07;;;;;;;7.03;3.33;;;25.10;1.00;;;;;;5082895;28;20044;-73
2021/07/26 08:40:55;;;;;;;6.53;3.10;;;24.50;1.00;;;;;;5066433;28;20040;-73
2021/07/26 08:43:45;;;;;;;5.10;2.90;;;24.60;1.00;;;;;;5079335;28;20448;-72
2021/07/26 08:46:35;;;;;;;4.68;2.78;;;24.90;1.00;;;;;;5076076;28;20051;-72
2021/07/26 08:49:27;;;;;;;3.80;2.95;;;24.80;1.00;;;;;;5069014;28;20063;-71
2021/07/26 08:52:18;;;;;;;5.55;3.40;;;25.50;1.00;;;;;;5074101;28;20471;-73
2021/07/26 08:55:11;;;;;;;4.80;3.17;;;25.30;1.00;;;;;;5081376;28;20051;-72
2021/07/26 08:58:00;;;;;;;11.82;8.75;;;24.80;1.00;;;;;;5080129;28;20036;-72
2021/07/26 09:00:50;;;;;;;20.13;14.90;;;25.30;1.00;;;;;;5064092;28;20166;-74
2021/07/26 09:03:38;;;;;;;7.00;4.85;;;24.30;1.00;;;;;;5080199;28;20109;-72
2021/07/26 09:06:26;;;;;;;26.67;10.63;;;24.70;1.00;;;;;;5083765;28;20052;-72
2021/07/26 09:09:15;;;;;;;19.77;14.25;;;25.70;1.00;;;;;;5081235;28;20056;-73
2021/07/26 09:12:04;;;;;;;11.68;7.32;;;25.90;1.00;;;;;;5064516;28;20426;-72
2021/07/26 09:14:52;;;;;;;8.43;5.10;;;25.90;1.00;;;;;;5079488;28;20314;-72
2021/07/26 09:17:44;;;;;;;6.32;3.55;;;25.40;1.00;;;;;;5080138;28;20063;-72
2021/07/26 09:20:34;;;;;;;8.32;5.30;;;25.80;1.00;;;;;;5073977;28;20068;-73
2021/07/26 09:23:22;;;;;;;7.03;3.95;;;25.80;1.00;;;;;;5077743;28;20066;-74
2021/07/26 09:26:27;;;;;;;8.07;3.65;;;25.90;1.00;;;;;;5061156;28;20119;-72
2021/07/26 09:29:29;;;;;;;4.32;2.95;;;26.00;1.00;;;;;;5081088;28;20127;-73
2021/07/26 09:32:17;;;;;;;5.88;3.25;;;26.00;1.00;;;;;;5078643;28;20044;-73
2021/07/26 09:35:09;;;;;;;4.95;3.08;;;25.70;1.00;;;;;;5067466;28;20468;-72
2021/07/26 09:37:59;;;;;;;6.10;3.53;;;25.50;1.00;;;;;;5082348;28;20033;-71
2021/07/26 09:40:48;;;;;;;6.18;2.65;;;25.80;1.00;;;;;;5078194;28;20040;-73
2021/07/26 09:43:38;;;;;;;4.85;2.92;;;25.80;1.00;;;;;;5077679;28;20060;-73
2021/07/26 09:46:27;;;;;;;4.95;3.03;;;26.00;1.00;;;;;;5080086;28;20052;-73
2021/07/26 09:49:17;;;;;;;4.40;2.80;;;25.70;1.00;;;;;;5074878;28;20112;-72
2021/07/26 09:52:08;;;;;;;4.53;3.30;;;25.40;1.00;;;;;;5081729;28;20046;-73
2021/07/26 09:54:59;;;;;;;5.18;3.20;;;25.80;1.00;;;;;;5081738;28;20048;-72
2021/07/26 09:57:47;;;;;;;6.13;3.20;;;26.30;1.00;;;;;;5084840;28;20055;-72
2021/07/26 10:00:37;;;;;;;5.70;3.28;;;25.60;1.00;;;;;;5066973;28;20055;-72
2021/07/26 10:03:26;;;;;;;4.40;3.00;;;25.60;1.00;;;;;;5084479;28;20049;-72
2021/07/26 10:06:15;;;;;;;4.60;3.53;;;25.30;1.00;;;;;;5071416;28;20658;-73
2021/07/26 10:09:05;;;;;;;4.10;3.35;;;24.80;1.00;;;;;;5083984;28;20767;-72
2021/07/26 10:11:53;;;;;;;7.60;3.25;;;24.90;1.00;;;;;;5071649;28;20169;-72
2021/07/26 10:14:43;;;;;;;6.18;3.35;;;25.10;1.00;;;;;;5084033;28;20587;-73
2021/07/26 10:17:33;;;;;;;7.40;3.28;;;24.70;1.00;;;;;;5083575;28;20423;-72
2021/07/26 10:20:23;;;;;;;4.68;2.80;;;25.00;1.00;;;;;;5065042;28;20055;-73
2021/07/26 10:23:15;;;;;;;5.80;3.65;;;25.00;1.00;;;;;;5080487;28;20135;-72
2021/07/26 10:26:07;;;;;;;6.88;3.20;;;25.00;1.00;;;;;;5082893;28;20562;-73
2021/07/26 10:28:55;;;;;;;4.35;3.10;;;25.00;1.00;;;;;;5084925;28;20059;-72
2021/07/26 10:31:47;;;;;;;6.28;3.53;;;25.10;1.00;;;;;;5082596;28;20032;-74
2021/07/26 10:34:36;;;;;;;4.88;3.28;;;25.20;1.00;;;;;;5069806;28;20628;-73
2021/07/26 10:37:48;;;;;;;4.80;2.78;;;25.00;1.00;;;;;;5084661;28;20052;-73
2021/07/26 10:40:43;;;;;;;4.15;2.70;;;25.80;1.00;;;;;;5078945;28;20139;-74
2021/07/26 10:43:58;;;;;;;3.88;3.08;;;26.60;1.00;;;;;;5082377;28;20044;-72
2021/07/26 10:47:17;;;;;;;6.47;3.67;;;26.80;1.00;;;;;;5080045;28;20036;-74
2021/07/26 10:50:13;;;;;;;5.28;3.60;;;26.60;1.00;;;;;;5074838;28;20058;-74
2021/07/26 10:53:01;;;;;;;7.72;3.33;;;26.50;1.00;;;;;;5070780;28;20082;-74
2021/07/26 10:56:11;;;;;;;3.08;2.78;;;26.40;1.00;;;;;;5077847;28;20044;-73
2021/07/26 10:59:05;;;;;;;4.43;2.80;;;26.10;1.00;;;;;;5067795;28;20065;-73
2021/07/26 11:01:58;;;;;;;4.93;2.70;;;26.30;1.00;;;;;;5066319;28;20047;-74
2021/07/26 11:04:46;;;;;;;5.15;2.97;;;26.70;1.00;;;;;;5079704;28;20660;-74
2021/07/26 11:07:35;;;;;;;5.10;2.67;;;26.90;1.00;;;;;;5079698;28;20411;-74
2021/07/26 11:10:44;;;;;;;3.30;2.83;;;26.60;1.00;;;;;;5055356;28;20466;-75
2021/07/26 11:14:12;;;;;;;4.38;2.88;;;27.10;1.00;;;;;;5078967;28;20443;-73
2021/07/26 11:17:03;;;;;;;2.92;2.40;;;26.00;1.00;;;;;;5084504;28;20410;-73
2021/07/26 11:19:59;;;;;;;5.88;2.70;;;25.70;1.00;;;;;;5083214;28;20055;-73
2021/07/26 11:22:59;;;;;;;7.80;3.17;;;25.70;1.00;;;;;;5077187;28;20040;-73
2021/07/26 11:25:48;;;;;;;4.63;2.78;;;25.60;1.00;;;;;;5083879;28;20048;-72
2021/07/26 11:28:38;;;;;;;4.40;2.72;;;26.10;1.00;;;;;;5080929;28;20538;-73
2021/07/26 11:31:32;;;;;;;3.33;2.58;;;26.10;1.00;;;;;;5079428;28;20539;-73
2021/07/26 11:34:21;;;;;;;4.60;2.78;;;26.00;1.00;;;;;;5078951;28;20040;-72
2021/07/26 11:37:13;;;;;;;4.00;2.50;;;25.60;1.00;;;;;;5069881;28;20093;-73
2021/07/26 11:40:04;;;;;;;4.68;2.60;;;24.70;1.00;;;;;;5077433;28;20040;-73
2021/07/26 11:42:52;;;;;;;3.60;1.98;;;24.60;1.00;;;;;;5081693;28;20052;-73
2021/07/26 11:45:41;;;;;;;3.63;2.15;;;23.80;1.00;;;;;;5076295;28;20224;-72
2021/07/26 11:48:31;;;;;;;4.82;2.30;;;23.20;1.00;;;;;;5079011;28;20070;-71
2021/07/26 11:51:37;;;;;;;3.67;1.42;;;22.90;1.00;;;;;;5082042;28;20521;-72
2021/07/26 11:54:29;;;;;;;1.80;1.45;;;22.80;1.00;;;;;;5080655;28;20058;-73
2021/07/26 11:57:17;;;;;;;2.30;1.40;;;22.70;1.00;;;;;;5082258;28;20048;-73
2021/07/26 12:00:07;;;;;;;2.25;1.45;;;22.70;1.00;;;;;;5082529;28;20048;-72
2021/07/26 12:02:58;;;;;;;1.35;1.00;;;22.70;1.00;;;;;;5063271;28;20048;-71
2021/07/26 12:05:48;;;;;;;2.88;1.30;;;22.90;1.00;;;;;;5082884;28;20059;-72
2021/07/26 12:08:37;;;;;;;1.45;1.17;;;22.70;1.00;;;;;;5074127;28;20970;-71
2021/07/26 12:11:33;;;;;;;1.90;1.20;;;23.20;1.00;;;;;;5062153;28;20542;-72
2021/07/26 12:14:26;;;;;;;1.25;0.90;;;23.10;1.00;;;;;;5076588;28;20101;-72
2021/07/26 12:17:25;;;;;;;2.13;1.25;;;23.40;1.00;;;;;;5080157;28;20047;-72
2021/07/26 12:20:22;;;;;;;1.95;1.13;;;23.30;1.00;;;;;;5059465;28;20588;-72
2021/07/26 12:23:13;;;;;;;2.05;1.27;;;23.10;1.00;;;;;;5079684;28;20040;-71
2021/07/26 12:26:08;;;;;;;2.25;1.10;;;23.20;1.00;;;;;;5078901;28;20052;-71
2021/07/26 12:28:58;;;;;;;2.80;1.33;;;23.30;1.00;;;;;;5082048;28;20047;-71
2021/07/26 12:31:47;;;;;;;1.70;1.17;;;23.20;1.00;;;;;;5066851;28;20124;-71
2021/07/26 12:34:35;;;;;;;2.10;1.40;;;23.00;1.00;;;;;;5082244;28;20503;-73
2021/07/26 12:37:24;;;;;;;1.85;1.42;;;22.90;1.00;;;;;;5081359;28;20048;-71
2021/07/26 12:40:15;;;;;;;2.00;1.42;;;23.00;1.00;;;;;;5076845;28;20051;-71
2021/07/26 12:43:11;;;;;;;2.55;1.70;;;23.10;1.00;;;;;;5063195;28;20135;-72
2021/07/26 12:46:02;;;;;;;3.08;1.38;;;23.10;1.00;;;;;;5082526;28;20043;-71
2021/07/26 12:49:02;;;;;;;2.13;1.50;;;23.10;1.00;;;;;;5082124;28;20271;-71
2021/07/26 12:51:52;;;;;;;1.67;1.20;;;23.30;1.00;;;;;;5081709;28;20048;-71
2021/07/26 12:54:44;;;;;;;4.65;1.50;;;23.00;1.00;;;;;;5079950;28;20531;-72
2021/07/26 12:57:34;;;;;;;2.88;1.13;;;23.10;1.00;;;;;;5082334;28;20050;-73
2021/07/26 13:00:40;;;;;;;3.63;1.70;;;23.10;1.00;;;;;;5079679;28;20091;-73
2021/07/26 13:03:30;;;;;;;2.05;1.33;;;23.00;1.00;;;;;;5077786;28;20063;-72
2021/07/26 13:06:18;;;;;;;2.20;1.55;;;22.90;1.00;;;;;;5080002;28;20041;-71
2021/07/26 13:09:07;;;;;;;1.50;1.20;;;22.80;1.00;;;;;;5077190;28;20052;-72
2021/07/26 13:11:55;;;;;;;8.02;1.70;;;22.80;1.00;;;;;;5081751;28;20052;-72
2021/07/26 13:14:45;;;;;;;5.55;1.90;;;22.90;1.00;;;;;;5067132;28;20974;-72
2021/07/26 13:17:33;;;;;;;6.78;1.88;;;22.90;1.00;;;;;;5083583;28;20063;-72
2021/07/26 13:20:22;;;;;;;3.63;1.55;;;23.10;1.00;;;;;;5079238;28;20059;-71
2021/07/26 13:23:11;;;;;;;3.53;1.60;;;23.10;1.00;;;;;;5072987;28;20143;-72
2021/07/26 13:26:00;;;;;;;4.53;1.60;;;22.90;1.00;;;;;;5078474;28;20059;-72
2021/07/26 13:28:48;;;;;;;4.25;1.30;;;22.90;1.00;;;;;;5081487;28;20087;-71
2021/07/26 13:31:38;;;;;;;2.53;1.80;;;23.10;1.00;;;;;;5084633;28;20045;-72
2021/07/26 13:34:26;;;;;;;5.03;2.10;;;22.80;1.00;;;;;;5080240;28;20048;-72
2021/07/26 13:37:15;;;;;;;2.67;1.90;;;22.70;1.00;;;;;;5083479;28;20066;-72
2021/07/26 13:40:05;;;;;;;4.20;2.40;;;23.00;1.00;;;;;;5083522;28;20055;-73
2021/07/26 13:42:54;;;;;;;6.57;3.08;;;23.00;1.00;;;;;;5084091;28;20142;-71
2021/07/26 13:45:42;;;;;;;4.03;2.92;;;22.30;2.90;;;;;;5086575;28;20119;-72
2021/07/26 13:48:32;;;;;;;6.45;3.08;;;22.30;3.90;;;;;;5084926;28;20070;-71
2021/07/26 13:51:23;;;;;;;4.53;2.60;;;22.20;2.30;;;;;;5086364;28;20054;-72
2021/07/26 13:54:11;;;;;;;4.13;2.58;;;21.60;2.70;;;;;;5083982;28;20700;-72
2021/07/26 13:57:00;;;;;;;3.80;2.42;;;21.50;2.70;;;;;;5085399;28;20043;-71
2021/07/26 13:59:48;;;;;;;2.80;2.13;;;21.50;1.00;;;;;;5082634;28;20525;-72
2021/07/26 14:02:37;;;;;;;4.15;2.22;;;21.50;1.00;;;;;;5086214;28;20048;-71
2021/07/26 14:05:26;;;;;;;5.22;3.00;;;21.20;1.00;;;;;;5084976;28;20059;-71
2021/07/26 14:08:15;;;;;;;5.10;2.97;;;21.20;4.10;;;;;;5087800;28;20051;-71
2021/07/26 14:11:04;;;;;;;4.30;3.00;;;20.70;7.70;;;;;;5082505;28;20136;-72
2021/07/26 14:13:52;;;;;;;5.15;3.10;;;20.70;9.30;;;;;;5083226;28;20048;-72
2021/07/26 14:16:40;;;;;;;4.47;2.80;;;20.40;11.60;;;;;;5080831;28;20172;-72
2021/07/26 14:19:29;;;;;;;7.63;2.90;;;20.50;14.20;;;;;;5082928;28;20541;-72
2021/07/26 14:22:19;;;;;;;5.13;3.03;;;20.60;13.10;;;;;;5081595;28;20048;-71
2021/07/26 14:25:09;;;;;;;4.32;3.08;;;20.60;15.00;;;;;;5081407;28;20582;-72
2021/07/26 14:27:59;;;;;;;5.13;3.00;;;20.70;16.40;;;;;;5081895;28;20048;-72
2021/07/26 14:30:49;;;;;;;2.88;2.38;;;20.60;17.30;;;;;;5077914;28;20556;-72
2021/07/26 14:33:37;;;;;;;3.33;2.53;;;20.20;14.80;;;;;;5080459;28;20040;-72
2021/07/26 14:36:43;;;;;;;9.20;2.78;;;20.10;16.70;;;;;;5082002;28;20062;-71
2021/07/26 14:39:33;;;;;;;4.50;2.58;;;19.70;18.00;;;;;;5065973;28;20075;-72
2021/07/26 14:42:23;;;;;;;7.07;2.67;;;19.50;24.80;;;;;;5085471;28;20503;-72
2021/07/26 14:45:12;;;;;;;2.85;2.30;;;19.50;27.30;;;;;;5082456;28;20055;-72
2021/07/26 14:48:00;;;;;;;2.92;2.38;;;19.30;23.80;;;;;;5086066;28;20051;-71
2021/07/26 14:50:50;;;;;;;3.80;2.47;;;19.40;22.60;;;;;;5083348;28;20406;-73